createdAt,value
2022-08-26T00:00:07.007Z,99139.22
2022-08-26T00:00:19.065Z,99143.41
2022-08-26T00:00:31.596Z,99140.59
2022-08-26T00:00:46.752Z,99146.19
2022-08-26T00:00:58.722Z,99149.53
2022-08-26T00:01:10.661Z,99144.25
2022-08-26T00:01:29.079Z,99142.56
2022-08-26T00:01:44.143Z,99139.06
2022-08-26T00:01:57.094Z,99141.72
2022-08-26T00:02:09.157Z,99137.25
2022-08-26T00:02:21.154Z,99140.75
2022-08-26T00:02:33.575Z,99138.94
2022-08-26T00:02:45.521Z,99140.75
2022-08-26T00:02:58.553Z,99135.59
2022-08-26T00:03:12.230Z,99139.22
2022-08-26T00:03:24.350Z,99142.84
2022-08-26T00:03:36.583Z,99138.50
2022-08-26T00:03:48.680Z,99143.69
2022-08-26T00:04:01.298Z,99142.03
2022-08-26T00:04:13.565Z,99146.19
2022-08-26T00:04:26.080Z,99135.03
2022-08-26T00:04:38.231Z,99140.19
2022-08-26T00:04:50.167Z,99141.84
2022-08-26T00:05:02.562Z,99141.72
2022-08-26T00:05:14.538Z,99146.19
2022-08-26T00:05:27.074Z,99141.59
2022-08-26T00:05:40.084Z,99142.56
2022-08-26T00:05:52.414Z,99141.72
2022-08-26T00:06:05.288Z,99144.50
2022-08-26T00:06:20.843Z,99140.47
2022-08-26T00:06:33.290Z,99139.50
2022-08-26T00:06:46.351Z,99146.47
2022-08-26T00:06:58.444Z,99144.81
2022-08-26T00:07:10.446Z,99143.81
2022-08-26T00:07:22.403Z,99144.81
2022-08-26T00:07:34.343Z,99143.13
2022-08-26T00:07:46.482Z,99146.47
2022-08-26T00:08:00.619Z,99140.19
2022-08-26T00:08:14.519Z,99137.56
2022-08-26T00:08:26.454Z,99144.38
2022-08-26T00:08:38.591Z,99142.28
2022-08-26T00:08:50.959Z,99139.63
2022-08-26T00:09:04.070Z,99140.59
2022-08-26T00:09:20.222Z,99132.81
2022-08-26T00:09:32.944Z,99139.06
2022-08-26T00:09:51.279Z,99143.69
2022-08-26T00:10:07.013Z,99142.84
2022-08-26T00:10:21.248Z,99139.78
2022-08-26T00:10:38.976Z,99142.28
2022-08-26T00:10:50.993Z,99139.50
2022-08-26T00:11:03.031Z,99142.28
2022-08-26T00:11:15.531Z,99142.41
2022-08-26T00:11:38.347Z,99147.88
2022-08-26T00:11:50.553Z,99141.72
2022-08-26T00:12:03.494Z,99142.72
2022-08-26T00:12:15.616Z,99142.03
2022-08-26T00:12:35.960Z,99134.78
2022-08-26T00:12:49.842Z,99140.06
2022-08-26T00:13:01.875Z,99143.53
2022-08-26T00:13:14.310Z,99145.38
2022-08-26T00:13:26.299Z,99136.72
2022-08-26T00:13:38.790Z,99142.84
2022-08-26T00:13:50.769Z,99140.91
2022-08-26T00:14:02.992Z,99137.41
2022-08-26T00:14:16.739Z,99136.44
2022-08-26T00:14:30.925Z,99135.59
2022-08-26T00:14:43.212Z,99131.41
2022-08-26T00:14:55.158Z,99140.06
2022-08-26T00:15:10.403Z,99145.38
2022-08-26T00:15:23.961Z,99137.41
2022-08-26T00:15:36.295Z,99139.38
2022-08-26T00:15:48.322Z,99139.25
2022-08-26T00:16:01.267Z,99136.72
2022-08-26T00:16:14.886Z,99140.47
2022-08-26T00:16:28.622Z,99146.63
2022-08-26T00:16:47.311Z,99145.63
2022-08-26T00:17:00.986Z,99137.81
2022-08-26T00:17:13.467Z,99138.94
2022-08-26T00:17:25.408Z,99144.22
2022-08-26T00:17:40.234Z,99145.91
2022-08-26T00:17:53.478Z,99144.09
2022-08-26T00:18:05.817Z,99135.16
2022-08-26T00:18:38.694Z,99141.59
2022-08-26T00:18:53.120Z,99139.63
2022-08-26T00:19:05.100Z,99143.09
2022-08-26T00:19:21.135Z,99143.97
2022-08-26T00:19:33.322Z,99139.50
2022-08-26T00:19:45.344Z,99147.31
2022-08-26T00:19:59.431Z,99145.63
2022-08-26T00:20:14.374Z,99148.28
2022-08-26T00:20:30.222Z,99142.16
2022-08-26T00:20:42.964Z,99143.97
2022-08-26T00:20:54.984Z,99149.25
2022-08-26T00:21:08.489Z,99142.28
2022-08-26T00:21:20.770Z,99148.41
2022-08-26T00:21:32.695Z,99140.63
2022-08-26T00:21:45.462Z,99145.91
2022-08-26T00:21:57.388Z,99139.22
2022-08-26T00:22:10.327Z,99151.47
2022-08-26T00:22:23.510Z,99142.56
2022-08-26T00:22:37.219Z,99146.19
2022-08-26T00:22:49.166Z,99141.72
2022-08-26T00:23:01.401Z,99143.53
2022-08-26T00:23:13.420Z,99146.19
2022-08-26T00:23:25.990Z,99141.88
2022-08-26T00:23:40.894Z,99142.56
2022-08-26T00:23:52.836Z,99137.28
2022-08-26T00:24:04.934Z,99146.19
2022-08-26T00:24:19.099Z,99151.47
2022-08-26T00:24:30.995Z,99144.53
2022-08-26T00:24:47.863Z,99144.38
2022-08-26T00:25:00.137Z,99150.66
2022-08-26T00:25:13.084Z,99144.53
2022-08-26T00:25:25.753Z,99146.19
2022-08-26T00:25:38.282Z,99143.66
2022-08-26T00:25:54.571Z,99143.66
2022-08-26T00:26:08.808Z,99150.66
2022-08-26T00:26:23.110Z,99151.47
2022-08-26T00:26:41.381Z,99147.00
2022-08-26T00:26:53.688Z,99147.88
2022-08-26T00:27:06.381Z,99147.88
2022-08-26T00:27:18.530Z,99146.88
2022-08-26T00:27:33.862Z,99151.22
2022-08-26T00:27:47.710Z,99149.53
2022-08-26T00:28:01.063Z,99146.19
2022-08-26T00:28:13.157Z,99149.81
2022-08-26T00:28:26.199Z,99147.19
2022-08-26T00:28:38.269Z,99146.19
2022-08-26T00:28:52.487Z,99151.47
2022-08-26T00:29:05.544Z,99137.28
2022-08-26T00:29:18.123Z,99146.88
2022-08-26T00:29:31.891Z,99145.06
2022-08-26T00:29:46.849Z,99147.88
2022-08-26T00:29:58.788Z,99144.53
2022-08-26T00:30:16.409Z,99144.53
2022-08-26T00:30:34.654Z,99141.19
2022-08-26T00:30:49.099Z,99147.31
2022-08-26T00:31:03.998Z,99147.44
2022-08-26T00:31:19.036Z,99149.81
2022-08-26T00:31:31.414Z,99143.66
2022-08-26T00:31:45.272Z,99140.88
2022-08-26T00:31:57.665Z,99147.00
2022-08-26T00:32:09.851Z,99144.53
2022-08-26T00:32:23.464Z,99143.66
2022-08-26T00:32:35.755Z,99148.13
2022-08-26T00:32:49.810Z,99146.47
2022-08-26T00:33:02.643Z,99144.78
2022-08-26T00:33:16.282Z,99148.44
2022-08-26T00:33:30.835Z,99146.75
2022-08-26T00:33:43.923Z,99151.34
2022-08-26T00:33:56.551Z,99148.00
2022-08-26T00:34:09.334Z,99148.00
2022-08-26T00:34:21.629Z,99143.69
2022-08-26T00:34:33.955Z,99145.22
2022-08-26T00:34:45.888Z,99143.38
2022-08-26T00:34:57.810Z,99148.00
2022-08-26T00:35:11.746Z,99147.03
2022-08-26T00:35:24.596Z,99150.50
2022-08-26T00:35:40.266Z,99145.34
2022-08-26T00:35:58.280Z,99142.00
2022-08-26T00:36:19.857Z,99152.88
2022-08-26T00:36:32.400Z,99151.75
2022-08-26T00:36:44.380Z,99149.94
2022-08-26T00:36:56.381Z,99148.97
2022-08-26T00:37:09.869Z,99145.34
2022-08-26T00:37:24.993Z,99149.81
2022-08-26T00:37:37.116Z,99145.34
2022-08-26T00:37:49.277Z,99142.69
2022-08-26T00:38:02.088Z,99146.19
2022-08-26T00:38:15.256Z,99141.72
2022-08-26T00:38:27.334Z,99148.69
2022-08-26T00:38:39.267Z,99146.75
2022-08-26T00:38:51.691Z,99140.63
2022-08-26T00:39:04.225Z,99148.44
2022-08-26T00:39:16.265Z,99140.47
2022-08-26T00:39:28.739Z,99148.44
2022-08-26T00:39:40.950Z,99144.78
2022-08-26T00:39:53.213Z,99150.91
2022-08-26T00:40:10.410Z,99145.09
2022-08-26T00:40:39.460Z,99146.03
2022-08-26T00:40:55.053Z,99149.38
2022-08-26T00:41:07.040Z,99151.06
2022-08-26T00:41:19.580Z,99143.97
2022-08-26T00:41:31.645Z,99151.06
2022-08-26T00:41:43.643Z,99143.97
2022-08-26T00:41:55.750Z,99149.25
2022-08-26T00:42:08.318Z,99144.91
2022-08-26T00:42:20.658Z,99145.09
2022-08-26T00:42:33.099Z,99138.09
2022-08-26T00:42:46.023Z,99140.03
2022-08-26T00:42:59.232Z,99146.34
2022-08-26T00:43:12.055Z,99143.69
2022-08-26T00:43:25.919Z,99138.38
2022-08-26T00:43:47.569Z,99143.69
2022-08-26T00:43:59.963Z,99143.69
2022-08-26T00:44:12.792Z,99140.34
2022-08-26T00:44:24.732Z,99140.34
2022-08-26T00:44:36.672Z,99144.50
2022-08-26T00:44:48.764Z,99138.38
2022-08-26T00:45:04.650Z,99144.50
2022-08-26T00:45:24.305Z,99138.38
2022-08-26T00:45:48.092Z,99137.69
2022-08-26T00:46:16.231Z,99143.00
2022-08-26T00:46:33.717Z,99142.28
2022-08-26T00:46:50.700Z,99138.94
2022-08-26T00:47:08.272Z,99138.94
2022-08-26T00:47:31.251Z,99135.31
2022-08-26T00:47:48.239Z,99137.25
2022-08-26T00:48:05.754Z,99137.13
2022-08-26T00:48:21.546Z,99137.00
2022-08-26T00:48:34.375Z,99139.78
2022-08-26T00:48:50.934Z,99137.00
2022-08-26T00:49:34.504Z,99138.66
2022-08-26T00:49:47.621Z,99139.66
2022-08-26T00:50:05.120Z,99143.13
2022-08-26T00:50:23.984Z,99138.66
2022-08-26T00:50:41.697Z,99143.94
2022-08-26T00:50:59.393Z,99141.16
2022-08-26T00:51:17.495Z,99143.69
2022-08-26T00:51:30.758Z,99146.34
2022-08-26T00:51:49.528Z,99136.69
2022-08-26T00:52:04.938Z,99137.53
2022-08-26T00:52:23.038Z,99140.19
2022-08-26T00:52:35.918Z,99143.69
2022-08-26T00:52:52.153Z,99138.53
2022-08-26T00:53:41.600Z,99143.69
2022-08-26T00:53:57.260Z,99148.97
2022-08-26T00:54:10.922Z,99142.13
2022-08-26T00:54:27.246Z,99137.00
2022-08-26T00:54:46.595Z,99133.34
2022-08-26T00:55:07.241Z,99145.06
2022-08-26T00:55:34.499Z,99140.03
2022-08-26T00:55:59.751Z,99137.50
2022-08-26T00:56:43.321Z,99139.19
2022-08-26T00:56:59.839Z,99144.50
2022-08-26T00:57:16.928Z,99144.50
2022-08-26T00:57:29.610Z,99137.25
2022-08-26T00:57:42.359Z,99142.56
2022-08-26T00:57:55.827Z,99144.25
2022-08-26T00:58:08.521Z,99142.28
2022-08-26T00:58:22.592Z,99141.59
2022-08-26T00:58:37.901Z,99141.44
2022-08-26T00:58:55.455Z,99139.66
2022-08-26T00:59:11.291Z,99136.13
2022-08-26T00:59:24.164Z,99139.66
2022-08-26T00:59:36.670Z,99139.34
2022-08-26T00:59:56.708Z,99142.00
2022-08-26T01:00:14.386Z,99143.69
2022-08-26T01:00:28.619Z,99144.50
2022-08-26T01:00:40.627Z,99138.38
2022-08-26T01:00:53.448Z,99140.03
2022-08-26T01:01:05.727Z,99136.69
2022-08-26T01:01:18.538Z,99138.38
2022-08-26T01:01:38.013Z,99140.34
2022-08-26T01:01:51.455Z,99142.00
2022-08-26T01:02:04.251Z,99136.00
2022-08-26T01:02:21.365Z,99133.09
2022-08-26T01:02:33.740Z,99140.03
2022-08-26T01:02:48.195Z,99138.09
2022-08-26T01:03:03.006Z,99138.09
2022-08-26T01:03:19.616Z,99137.13
2022-08-26T01:03:36.706Z,99140.03
2022-08-26T01:03:49.678Z,99141.16
2022-08-26T01:04:01.944Z,99138.66
2022-08-26T01:04:18.107Z,99134.47
2022-08-26T01:04:33.261Z,99138.94
2022-08-26T01:04:45.290Z,99143.25
2022-08-26T01:05:03.358Z,99137.25
2022-08-26T01:05:17.768Z,99133.50
2022-08-26T01:05:30.396Z,99137.00
2022-08-26T01:05:42.791Z,99138.66
2022-08-26T01:05:58.239Z,99135.31
2022-08-26T01:06:12.993Z,99135.31
2022-08-26T01:06:25.818Z,99140.59
2022-08-26T01:06:38.088Z,99141.44
2022-08-26T01:06:52.834Z,99134.47
2022-08-26T01:07:05.135Z,99135.56
2022-08-26T01:07:17.728Z,99138.94
2022-08-26T01:07:31.450Z,99133.66
2022-08-26T01:07:43.899Z,99136.28
2022-08-26T01:07:55.982Z,99137.00
2022-08-26T01:08:08.564Z,99142.28
2022-08-26T01:08:21.075Z,99133.34
2022-08-26T01:08:36.481Z,99133.34
2022-08-26T01:08:48.428Z,99136.69
2022-08-26T01:09:00.407Z,99135.03
2022-08-26T01:09:12.814Z,99138.66
2022-08-26T01:09:24.778Z,99133.34
2022-08-26T01:09:38.178Z,99138.53
2022-08-26T01:09:51.991Z,99136.84
2022-08-26T01:10:08.342Z,99131.41
2022-08-26T01:10:25.702Z,99133.91
2022-08-26T01:10:38.064Z,99138.38
2022-08-26T01:10:52.589Z,99139.22
2022-08-26T01:11:08.272Z,99134.06
2022-08-26T01:11:20.803Z,99136.69
2022-08-26T01:11:33.862Z,99134.88
2022-08-26T01:11:49.431Z,99136.44
2022-08-26T01:12:03.283Z,99133.63
2022-08-26T01:12:15.318Z,99132.81
2022-08-26T01:12:40.975Z,99137.28
2022-08-26T01:12:57.993Z,99140.88
2022-08-26T01:13:11.511Z,99133.91
2022-08-26T01:13:23.995Z,99143.69
2022-08-26T01:13:37.437Z,99137.69
2022-08-26T01:13:53.443Z,99137.69
2022-08-26T01:14:06.432Z,99143.94
2022-08-26T01:14:21.506Z,99131.41
2022-08-26T01:14:35.713Z,99132.41
2022-08-26T01:14:49.447Z,99133.34
2022-08-26T01:15:02.733Z,99135.31
2022-08-26T01:15:24.553Z,99138.66
2022-08-26T01:15:42.024Z,99134.19
2022-08-26T01:15:56.899Z,99138.66
2022-08-26T01:16:12.864Z,99136.13
2022-08-26T01:16:25.508Z,99135.19
2022-08-26T01:16:37.949Z,99128.88
2022-08-26T01:16:50.264Z,99130.44
2022-08-26T01:17:05.468Z,99135.03
2022-08-26T01:17:18.362Z,99137.41
2022-08-26T01:17:30.342Z,99129.75
2022-08-26T01:17:46.327Z,99135.03
2022-08-26T01:17:59.095Z,99131.41
2022-08-26T01:18:13.255Z,99134.06
2022-08-26T01:18:26.454Z,99137.53
2022-08-26T01:18:41.984Z,99142.69
2022-08-26T01:18:59.701Z,99142.00
2022-08-26T01:19:37.448Z,99138.38
2022-08-26T01:20:03.137Z,99131.41
2022-08-26T01:20:34.042Z,99143.69
2022-08-26T01:21:26.076Z,99131.41
2022-08-26T01:21:49.801Z,99137.53
2022-08-26T01:22:30.442Z,99138.09
2022-08-26T01:23:01.658Z,99136.13
2022-08-26T01:23:15.333Z,99129.06
2022-08-26T01:23:31.225Z,99135.03
2022-08-26T01:23:47.642Z,99132.53
2022-08-26T01:24:00.077Z,99131.69
2022-08-26T01:24:12.425Z,99137.94
2022-08-26T01:24:28.747Z,99144.25
2022-08-26T01:24:41.541Z,99133.66
2022-08-26T01:24:53.882Z,99137.00
2022-08-26T01:25:06.965Z,99141.31
2022-08-26T01:25:21.385Z,99137.69
2022-08-26T01:25:36.919Z,99134.34
2022-08-26T01:25:56.901Z,99132.53
2022-08-26T01:26:20.051Z,99136.13
2022-08-26T01:26:40.488Z,99138.94
2022-08-26T01:26:56.815Z,99137.25
2022-08-26T01:27:12.405Z,99134.34
2022-08-26T01:27:24.744Z,99132.53
2022-08-26T01:27:36.761Z,99131.41
2022-08-26T01:27:49.527Z,99137.53
2022-08-26T01:28:21.541Z,99132.22
2022-08-26T01:28:36.121Z,99133.09
2022-08-26T01:28:51.976Z,99140.03
2022-08-26T01:29:05.779Z,99137.41
2022-08-26T01:29:20.206Z,99141.72
2022-08-26T01:29:35.128Z,99140.63
2022-08-26T01:29:48.855Z,99139.78
2022-08-26T01:30:02.462Z,99136.97
2022-08-26T01:30:14.928Z,99137.84
2022-08-26T01:30:28.625Z,99135.19
2022-08-26T01:30:42.174Z,99136.97
2022-08-26T01:30:56.697Z,99138.78
2022-08-26T01:31:14.595Z,99140.47
2022-08-26T01:31:31.835Z,99139.09
2022-08-26T01:31:47.197Z,99136.16
2022-08-26T01:31:59.899Z,99141.56
2022-08-26T01:32:16.013Z,99141.44
2022-08-26T01:32:28.440Z,99138.78
2022-08-26T01:32:41.066Z,99136.84
2022-08-26T01:32:56.062Z,99139.50
2022-08-26T01:33:12.733Z,99143.97
2022-08-26T01:33:42.272Z,99139.50
2022-08-26T01:34:06.015Z,99137.84
2022-08-26T01:34:20.597Z,99143.13
2022-08-26T01:34:36.021Z,99142.13
2022-08-26T01:34:48.571Z,99141.19
2022-08-26T01:35:02.223Z,99137.66
2022-08-26T01:35:14.192Z,99141.19
2022-08-26T01:35:26.679Z,99135.88
2022-08-26T01:35:39.031Z,99139.50
2022-08-26T01:35:51.059Z,99136.16
2022-08-26T01:36:04.273Z,99139.50
2022-08-26T01:36:16.259Z,99140.31
2022-08-26T01:36:29.501Z,99136.72
2022-08-26T01:36:41.735Z,99139.34
2022-08-26T01:37:07.378Z,99142.13
2022-08-26T01:37:24.175Z,99139.50
2022-08-26T01:37:38.966Z,99135.03
2022-08-26T01:37:54.752Z,99135.88
2022-08-26T01:38:07.104Z,99133.94
2022-08-26T01:38:19.306Z,99134.91
2022-08-26T01:38:31.665Z,99141.88
2022-08-26T01:38:45.148Z,99141.44
2022-08-26T01:38:57.601Z,99134.50
2022-08-26T01:39:10.508Z,99141.31
2022-08-26T01:39:22.861Z,99135.19
2022-08-26T01:39:36.690Z,99135.88
2022-08-26T01:39:52.338Z,99133.25
2022-08-26T01:40:07.540Z,99137.84
2022-08-26T01:40:25.535Z,99137.84
2022-08-26T01:40:40.083Z,99137.84
2022-08-26T01:40:52.055Z,99136.97
2022-08-26T01:41:16.139Z,99138.78
2022-08-26T01:41:33.065Z,99138.09
2022-08-26T01:41:46.161Z,99141.44
2022-08-26T01:41:59.245Z,99137.84
2022-08-26T01:42:16.743Z,99135.31
2022-08-26T01:42:29.867Z,99137.84
2022-08-26T01:42:42.563Z,99139.50
2022-08-26T01:42:55.036Z,99136.84
2022-08-26T01:43:09.407Z,99141.19
2022-08-26T01:43:25.853Z,99137.53
2022-08-26T01:43:39.340Z,99141.19
2022-08-26T01:43:54.505Z,99136.72
2022-08-26T01:44:14.903Z,99139.22
2022-08-26T01:44:30.947Z,99135.59
2022-08-26T01:44:47.555Z,99131.28
2022-08-26T01:45:28.297Z,99133.94
2022-08-26T01:45:41.808Z,99135.59
2022-08-26T01:45:56.757Z,99136.84
2022-08-26T01:46:09.169Z,99140.31
2022-08-26T01:46:23.611Z,99139.34
2022-08-26T01:46:35.815Z,99133.09
2022-08-26T01:46:50.670Z,99136.44
2022-08-26T01:47:05.175Z,99136.16
2022-08-26T01:47:21.415Z,99139.63
2022-08-26T01:47:35.952Z,99141.44
2022-08-26T01:47:49.907Z,99139.50
2022-08-26T01:48:14.731Z,99132.53
2022-08-26T01:48:34.223Z,99125.28
2022-08-26T01:48:48.870Z,99134.91
2022-08-26T01:49:08.139Z,99133.78
2022-08-26T01:49:22.802Z,99135.59
2022-08-26T01:49:38.575Z,99133.94
2022-08-26T01:49:53.618Z,99137.28
2022-08-26T01:50:12.536Z,99133.63
2022-08-26T01:50:31.107Z,99138.09
2022-08-26T01:50:45.075Z,99139.94
2022-08-26T01:50:57.943Z,99138.09
2022-08-26T01:51:12.036Z,99134.75
2022-08-26T01:51:26.401Z,99136.72
2022-08-26T01:51:39.268Z,99138.53
2022-08-26T01:51:55.241Z,99134.91
2022-08-26T01:52:08.451Z,99137.53
2022-08-26T01:52:27.648Z,99133.94
2022-08-26T01:52:42.782Z,99140.19
2022-08-26T01:52:56.683Z,99135.88
2022-08-26T01:53:12.949Z,99135.88
2022-08-26T01:53:25.442Z,99139.34
2022-08-26T01:53:38.889Z,99138.38
2022-08-26T01:53:54.699Z,99140.03
2022-08-26T01:54:08.353Z,99140.03
2022-08-26T01:54:25.331Z,99135.44
2022-08-26T01:54:37.538Z,99140.75
2022-08-26T01:54:51.437Z,99136.00
2022-08-26T01:55:05.846Z,99137.84
2022-08-26T01:55:33.107Z,99143.13
2022-08-26T01:55:50.955Z,99144.53
2022-08-26T01:56:05.206Z,99138.94
2022-08-26T01:56:18.403Z,99142.28
2022-08-26T01:56:36.556Z,99145.91
2022-08-26T01:56:51.001Z,99139.22
2022-08-26T01:57:03.983Z,99140.06
2022-08-26T01:57:17.364Z,99140.88
2022-08-26T01:57:29.635Z,99138.94
2022-08-26T01:57:44.172Z,99142.41
2022-08-26T01:57:57.335Z,99145.91
2022-08-26T01:58:14.882Z,99141.44
2022-08-26T01:58:32.951Z,99143.97
2022-08-26T01:58:57.498Z,99144.22
2022-08-26T01:59:14.343Z,99150.09
2022-08-26T01:59:26.758Z,99142.44
2022-08-26T01:59:38.810Z,99146.75
2022-08-26T01:59:55.338Z,99140.63
2022-08-26T02:00:11.026Z,99143.25
2022-08-26T02:00:25.303Z,99146.75
2022-08-26T02:00:39.458Z,99148.44
2022-08-26T02:00:51.904Z,99142.13
2022-08-26T02:01:05.743Z,99143.84
2022-08-26T02:01:18.632Z,99142.97
2022-08-26T02:01:31.187Z,99146.88
2022-08-26T02:01:43.798Z,99143.69
2022-08-26T02:01:57.324Z,99145.91
2022-08-26T02:02:09.702Z,99143.94
2022-08-26T02:02:22.339Z,99147.44
2022-08-26T02:02:37.107Z,99145.19
2022-08-26T02:03:12.824Z,99152.44
2022-08-26T02:03:26.871Z,99145.06
2022-08-26T02:04:02.428Z,99155.63
2022-08-26T02:04:23.324Z,99148.06
2022-08-26T02:05:10.902Z,99152.34
2022-08-26T02:05:23.129Z,99154.16
2022-08-26T02:05:35.721Z,99150.56
2022-08-26T02:05:56.539Z,99154.16
2022-08-26T02:06:09.282Z,99148.84
2022-08-26T02:06:23.613Z,99157.50
2022-08-26T02:06:38.830Z,99148.84
2022-08-26T02:06:53.439Z,99150.25
2022-08-26T02:07:09.115Z,99149.56
2022-08-26T02:07:21.672Z,99149.31
2022-08-26T02:07:34.206Z,99151.09
2022-08-26T02:07:47.874Z,99150.97
2022-08-26T02:08:00.055Z,99160.59
2022-08-26T02:08:13.904Z,99146.38
2022-08-26T02:08:44.609Z,99151.38
2022-08-26T02:09:00.538Z,99154.72
2022-08-26T02:09:13.500Z,99148.31
2022-08-26T02:09:27.051Z,99155.44
2022-08-26T02:09:41.280Z,99153.91
2022-08-26T02:09:54.779Z,99153.91
2022-08-26T02:10:10.136Z,99150.38
2022-08-26T02:10:22.140Z,99149.19
2022-08-26T02:10:35.927Z,99152.38
2022-08-26T02:10:47.939Z,99155.44
2022-08-26T02:11:00.303Z,99150.00
2022-08-26T02:11:13.241Z,99156.53
2022-08-26T02:11:25.616Z,99153.59
2022-08-26T02:11:38.497Z,99149.88
2022-08-26T02:11:51.789Z,99156.69
2022-08-26T02:12:04.310Z,99153.06
2022-08-26T02:12:19.613Z,99149.47
2022-08-26T02:12:32.552Z,99158.91
2022-08-26T02:12:44.488Z,99153.59
2022-08-26T02:12:56.516Z,99159.44
2022-08-26T02:13:10.631Z,99162.53
2022-08-26T02:13:25.404Z,99154.47
2022-08-26T02:13:44.841Z,99158.34
2022-08-26T02:14:28.075Z,99158.94
2022-08-26T02:14:44.424Z,99147.78
2022-08-26T02:15:00.674Z,99153.69
2022-08-26T02:15:12.894Z,99156.47
2022-08-26T02:15:24.847Z,99153.91
2022-08-26T02:15:37.786Z,99157.28
2022-08-26T02:15:49.775Z,99155.34
2022-08-26T02:16:03.722Z,99147.41
2022-08-26T02:16:19.223Z,99164.00
2022-08-26T02:16:46.461Z,99157.59
2022-08-26T02:16:58.776Z,99155.78
2022-08-26T02:17:12.230Z,99155.66
2022-08-26T02:17:39.386Z,99153.13
2022-08-26T02:17:52.602Z,99154.81
2022-08-26T02:18:05.324Z,99153.97
2022-08-26T02:18:18.339Z,99147.00
2022-08-26T02:18:33.015Z,99155.63
2022-08-26T02:18:46.999Z,99154.81
2022-08-26T02:19:00.703Z,99157.28
2022-08-26T02:19:17.043Z,99154.38
2022-08-26T02:19:32.590Z,99155.34
2022-08-26T02:19:48.403Z,99160.38
2022-08-26T02:20:00.719Z,99151.44
2022-08-26T02:20:17.004Z,99154.81
2022-08-26T02:20:29.748Z,99152.19
2022-08-26T02:20:41.681Z,99155.53
2022-08-26T02:20:55.238Z,99155.38
2022-08-26T02:21:09.679Z,99149.94
2022-08-26T02:21:22.003Z,99159.56
2022-08-26T02:21:38.528Z,99153.16
2022-08-26T02:21:53.794Z,99149.69
2022-08-26T02:22:13.830Z,99154.81
2022-08-26T02:22:26.282Z,99150.22
2022-08-26T02:22:38.419Z,99145.91
2022-08-26T02:22:52.328Z,99151.22
2022-08-26T02:23:04.581Z,99157.47
2022-08-26T02:23:16.616Z,99152.88
2022-08-26T02:23:28.746Z,99153.72
2022-08-26T02:23:40.767Z,99148.44
2022-08-26T02:23:53.556Z,99153.72
2022-08-26T02:24:19.500Z,99151.78
2022-08-26T02:24:48.897Z,99147.31
2022-08-26T02:25:11.942Z,99156.78
2022-08-26T02:25:52.619Z,99153.44
2022-08-26T02:26:11.945Z,99153.44
2022-08-26T02:26:27.155Z,99151.78
2022-08-26T02:26:39.709Z,99144.66
2022-08-26T02:26:52.900Z,99154.25
2022-08-26T02:27:05.254Z,99150.78
2022-08-26T02:27:22.127Z,99149.97
2022-08-26T02:27:35.565Z,99157.91
2022-08-26T02:27:47.698Z,99147.31
2022-08-26T02:28:00.483Z,99148.13
2022-08-26T02:28:14.167Z,99151.78
2022-08-26T02:28:31.055Z,99153.44
2022-08-26T02:28:51.065Z,99150.66
2022-08-26T02:29:07.659Z,99151.34
2022-08-26T02:29:28.989Z,99150.53
2022-08-26T02:29:45.534Z,99156.50
2022-08-26T02:30:10.445Z,99144.09
2022-08-26T02:30:26.097Z,99149.25
2022-08-26T02:30:41.092Z,99147.56
2022-08-26T02:30:55.438Z,99151.06
2022-08-26T02:31:08.138Z,99147.31
2022-08-26T02:31:22.540Z,99145.34
2022-08-26T02:31:34.733Z,99146.06
2022-08-26T02:31:48.381Z,99153.16
2022-08-26T02:32:00.434Z,99147.44
2022-08-26T02:32:13.820Z,99146.75
2022-08-26T02:32:30.548Z,99146.75
2022-08-26T02:32:42.861Z,99148.44
2022-08-26T02:32:55.375Z,99147.56
2022-08-26T02:33:08.839Z,99146.59
2022-08-26T02:33:20.878Z,99151.78
2022-08-26T02:33:32.880Z,99142.84
2022-08-26T02:33:44.854Z,99148.97
2022-08-26T02:34:07.882Z,99148.44
2022-08-26T02:34:28.350Z,99143.13
2022-08-26T02:34:44.059Z,99150.09
2022-08-26T02:34:56.019Z,99148.84
2022-08-26T02:35:10.198Z,99148.69
2022-08-26T02:35:23.606Z,99153.72
2022-08-26T02:35:37.389Z,99150.09
2022-08-26T02:35:49.325Z,99149.38
2022-08-26T02:36:01.267Z,99147.44
2022-08-26T02:36:19.504Z,99153.44
2022-08-26T02:36:31.426Z,99149.25
2022-08-26T02:36:44.308Z,99146.47
2022-08-26T02:36:57.314Z,99148.13
2022-08-26T02:37:10.771Z,99147.00
2022-08-26T02:37:23.023Z,99148.84
2022-08-26T02:37:35.447Z,99150.53
2022-08-26T02:37:49.455Z,99143.53
2022-08-26T02:38:02.524Z,99150.53
2022-08-26T02:38:22.356Z,99147.31
2022-08-26T02:38:36.047Z,99150.91
2022-08-26T02:38:49.162Z,99146.47
2022-08-26T02:39:04.538Z,99144.53
2022-08-26T02:39:22.045Z,99148.84
2022-08-26T02:39:36.858Z,99147.88
2022-08-26T02:39:48.900Z,99146.88
2022-08-26T02:40:01.571Z,99145.91
2022-08-26T02:40:15.386Z,99159.28
2022-08-26T02:40:34.210Z,99145.91
2022-08-26T02:40:48.179Z,99149.25
2022-08-26T02:41:00.159Z,99147.56
2022-08-26T02:41:12.078Z,99149.25
2022-08-26T02:41:24.005Z,99145.63
2022-08-26T02:41:40.282Z,99151.75
2022-08-26T02:41:57.718Z,99149.25
2022-08-26T02:42:10.203Z,99149.25
2022-08-26T02:42:22.318Z,99146.63
2022-08-26T02:42:34.419Z,99147.56
2022-08-26T02:42:47.612Z,99143.97
2022-08-26T02:42:59.713Z,99144.94
2022-08-26T02:43:12.537Z,99147.56
2022-08-26T02:43:32.695Z,99140.63
2022-08-26T02:43:44.975Z,99150.22
2022-08-26T02:43:57.013Z,99147.56
2022-08-26T02:44:10.580Z,99150.09
2022-08-26T02:44:22.495Z,99146.63
2022-08-26T02:44:34.651Z,99147.56
2022-08-26T02:44:46.762Z,99149.25
2022-08-26T02:44:58.759Z,99142.28
2022-08-26T02:45:11.055Z,99138.66
2022-08-26T02:45:23.806Z,99151.75
2022-08-26T02:45:36.042Z,99143.97
2022-08-26T02:45:48.096Z,99148.28
2022-08-26T02:46:02.147Z,99144.81
2022-08-26T02:46:27.818Z,99147.31
2022-08-26T02:46:42.031Z,99148.28
2022-08-26T02:46:59.613Z,99138.66
2022-08-26T02:47:14.369Z,99145.63
2022-08-26T02:47:26.443Z,99143.09
2022-08-26T02:47:41.119Z,99137.97
2022-08-26T02:47:53.169Z,99147.56
2022-08-26T02:48:16.137Z,99147.00
2022-08-26T02:48:30.830Z,99144.22
2022-08-26T02:48:42.763Z,99147.56
2022-08-26T02:48:54.915Z,99148.56
2022-08-26T02:49:07.254Z,99144.09
2022-08-26T02:49:19.590Z,99143.97
2022-08-26T02:49:32.275Z,99144.22
2022-08-26T02:49:47.188Z,99145.34
2022-08-26T02:49:59.846Z,99151.47
2022-08-26T02:50:11.891Z,99147.88
2022-08-26T02:50:25.527Z,99148.84
2022-08-26T02:50:38.170Z,99137.53
2022-08-26T02:50:51.174Z,99148.13
2022-08-26T02:51:03.513Z,99142.84
2022-08-26T02:51:15.487Z,99142.00
2022-08-26T02:51:28.133Z,99139.22
2022-08-26T02:51:40.096Z,99148.84
2022-08-26T02:51:52.234Z,99140.06
2022-08-26T02:52:04.731Z,99142.84
2022-08-26T02:52:16.883Z,99148.13
2022-08-26T02:52:29.010Z,99141.03
2022-08-26T02:52:41.251Z,99141.03
2022-08-26T02:52:53.601Z,99145.63
2022-08-26T02:53:06.510Z,99145.06
2022-08-26T02:53:25.055Z,99143.00
2022-08-26T02:53:37.426Z,99148.97
2022-08-26T02:53:49.646Z,99140.03
2022-08-26T02:54:03.341Z,99146.34
2022-08-26T02:54:17.496Z,99148.97
2022-08-26T02:54:29.951Z,99144.50
2022-08-26T02:54:41.999Z,99147.03
2022-08-26T02:54:53.993Z,99144.50
2022-08-26T02:55:07.049Z,99147.28
2022-08-26T02:55:19.370Z,99149.94
2022-08-26T02:55:32.193Z,99142.81
2022-08-26T02:55:44.145Z,99147.59
2022-08-26T02:55:56.089Z,99141.16
2022-08-26T02:56:08.722Z,99147.28
2022-08-26T02:56:20.659Z,99143.94